Tenney, Minnesota
Current Conditions -  °F | °C
As of 5:16 PM on Tuesday 25 Nov 2014 (Local Time) from KETH Reporting Station
Broken Clouds Broken Clouds  
Wind Chill: 10°   Ceiling: 3500
Heat Index: 21°   Visibility: 10mi
Dew Point: 18°   Wind: 10mph
Humidity: 86%   Direction: 110°ESE
Pressure: 29.93"   Gusts: NA
Location:  45.9787°N, 96.4182°W
Report Text: KETH 252316Z AUTO 11009KT 10SM BKN035 M06/M08 A2993 RMK AO2
Loading
Personal Weather Stations






























Interactive Weather Map New forecast layout! Learn more

10-Day Weather Forecast

Advertisements
Track Severe Weather on mobile